Time;durP1;ratioP1;P1;durP2;ratioP2;P2;SDS_P1;SDS_P2;PMS_P1;PMS_P2;Temp;Humidity;BMP_temperature;BMP_pressure;BME280_temperature;BME280_humidity;BME280_pressure;Samples;Min_cycle;Max_cycle;Signal;HPM_P1;HPM_P2
2022/05/05 00:01:18;;;;;;;3.83;1.95;;;;;;;;;;7395521;19;20006;-78
2022/05/05 00:03:44;;;;;;;2.75;2.00;;;;;;;;;;7399109;19;20013;-79
2022/05/05 00:06:09;;;;;;;3.30;2.30;;;;;;;;;;7397551;19;20003;-78
2022/05/05 00:08:34;;;;;;;2.72;2.00;;;;;;;;;;7400814;19;20027;-79
2022/05/05 00:16:28;;;;;;;2.22;1.88;;;;;;;;;;7399244;19;20039;-78
2022/05/05 00:18:53;;;;;;;2.72;2.40;;;;;;;;;;7399583;19;20418;-79
2022/05/05 00:21:19;;;;;;;3.78;2.33;;;;;;;;;;7394715;19;20006;-79
2022/05/05 00:23:44;;;;;;;2.95;2.05;;;;;;;;;;7398850;19;20147;-79
2022/05/05 00:26:09;;;;;;;2.83;1.90;;;;;;;;;;7397150;19;20093;-79
2022/05/05 00:28:35;;;;;;;2.15;1.90;;;;;;;;;;7396294;19;20010;-80
2022/05/05 00:31:00;;;;;;;2.22;1.90;;;;;;;;;;7396988;19;20011;-77
2022/05/05 00:33:25;;;;;;;4.53;2.28;;;;;;;;;;7397957;19;20041;-79
2022/05/05 00:35:50;;;;;;;2.53;2.08;;;;;;;;;;7396283;19;20010;-79
2022/05/05 00:38:17;;;;;;;2.20;1.70;;;;;;;;;;7396810;19;20011;-78
2022/05/05 00:40:43;;;;;;;4.22;2.03;;;;;;;;;;7393414;19;20011;-79
2022/05/05 00:43:09;;;;;;;3.15;1.70;;;;;;;;;;7396120;19;20066;-79
2022/05/05 00:45:34;;;;;;;2.92;1.90;;;;;;;;;;7395707;19;20045;-79
2022/05/05 00:48:07;;;;;;;1.98;1.75;;;;;;;;;;7392494;19;20010;-79
2022/05/05 00:50:33;;;;;;;4.55;2.00;;;;;;;;;;7394152;19;20006;-78
2022/05/05 00:52:59;;;;;;;3.42;2.05;;;;;;;;;;7393921;19;20007;-79
2022/05/05 00:55:24;;;;;;;2.30;1.85;;;;;;;;;;7391975;19;20126;-79
2022/05/05 00:57:50;;;;;;;2.65;2.13;;;;;;;;;;7389843;19;20017;-80
2022/05/05 01:00:15;;;;;;;4.90;2.20;;;;;;;;;;7400223;19;20007;-80
2022/05/05 01:02:41;;;;;;;2.85;2.10;;;;;;;;;;7405764;19;20480;-80
2022/05/05 01:05:07;;;;;;;2.90;1.80;;;;;;;;;;7406150;19;20006;-80
2022/05/05 01:07:33;;;;;;;2.35;1.70;;;;;;;;;;7404726;19;20003;-80
2022/05/05 01:09:59;;;;;;;2.72;2.20;;;;;;;;;;7403938;19;20010;-78
2022/05/05 01:12:29;;;;;;;3.22;2.47;;;;;;;;;;7400937;19;20027;-79
2022/05/05 01:14:55;;;;;;;2.92;2.30;;;;;;;;;;7398239;19;20021;-77
2022/05/05 01:17:21;;;;;;;2.80;2.20;;;;;;;;;;7396222;19;20337;-79
2022/05/05 01:19:47;;;;;;;4.25;2.60;;;;;;;;;;7397596;19;20050;-80
2022/05/05 01:22:12;;;;;;;3.03;2.47;;;;;;;;;;7399257;19;20045;-78
2022/05/05 01:30:06;;;;;;;2.33;1.88;;;;;;;;;;7397463;19;20094;-80
2022/05/05 01:32:32;;;;;;;2.80;2.20;;;;;;;;;;7398781;19;20014;-78
2022/05/05 01:34:57;;;;;;;5.65;2.28;;;;;;;;;;7397310;19;20096;-78
2022/05/05 01:37:23;;;;;;;3.78;2.35;;;;;;;;;;7396783;19;20006;-77
2022/05/05 01:39:48;;;;;;;3.38;2.30;;;;;;;;;;7396487;19;20022;-77
2022/05/05 01:42:14;;;;;;;3.35;1.65;;;;;;;;;;7397709;19;20010;-79
2022/05/05 01:44:39;;;;;;;2.72;1.95;;;;;;;;;;7397639;19;20010;-77
2022/05/05 01:47:04;;;;;;;1.77;1.52;;;;;;;;;;7395947;19;20023;-77
2022/05/05 01:49:30;;;;;;;2.90;2.45;;;;;;;;;;7394906;19;20502;-77
2022/05/05 01:51:55;;;;;;;2.63;2.10;;;;;;;;;;7394547;19;20007;-77
2022/05/05 01:54:21;;;;;;;2.13;1.88;;;;;;;;;;7397975;19;20071;-79
2022/05/05 01:56:46;;;;;;;3.60;2.42;;;;;;;;;;7396851;19;20010;-79
2022/05/05 01:59:11;;;;;;;2.50;1.92;;;;;;;;;;7396827;19;20014;-78
2022/05/05 02:01:36;;;;;;;2.80;2.38;;;;;;;;;;7393198;19;20010;-78
2022/05/05 02:04:02;;;;;;;3.35;2.60;;;;;;;;;;7397108;19;20006;-78
2022/05/05 02:06:27;;;;;;;2.80;2.30;;;;;;;;;;7396851;19;20014;-77
2022/05/05 02:08:52;;;;;;;2.13;1.92;;;;;;;;;;7398642;19;20017;-79
2022/05/05 02:11:18;;;;;;;5.32;2.70;;;;;;;;;;7395183;19;20021;-78
2022/05/05 02:13:43;;;;;;;3.67;2.55;;;;;;;;;;7396178;19;20010;-78
2022/05/05 02:16:08;;;;;;;2.90;2.30;;;;;;;;;;7393970;19;19998;-79
2022/05/05 02:18:34;;;;;;;2.97;2.47;;;;;;;;;;7397194;19;20006;-77
2022/05/05 02:20:59;;;;;;;2.17;1.98;;;;;;;;;;7395896;19;20035;-78
2022/05/05 02:23:24;;;;;;;3.97;2.70;;;;;;;;;;7399303;19;20007;-77
2022/05/05 02:25:50;;;;;;;6.20;2.70;;;;;;;;;;7396385;19;21188;-79
2022/05/05 02:28:15;;;;;;;3.63;2.90;;;;;;;;;;7399485;19;20014;-79
2022/05/05 02:30:40;;;;;;;3.63;2.00;;;;;;;;;;7396180;19;20014;-77
2022/05/05 02:33:06;;;;;;;3.63;2.78;;;;;;;;;;7399177;19;20022;-77
2022/05/05 02:35:31;;;;;;;3.70;2.75;;;;;;;;;;7398274;19;20007;-77
2022/05/05 02:40:41;;;;;;;4.70;2.47;;;;;;;;;;7396205;19;20612;-77
2022/05/05 02:43:06;;;;;;;2.70;2.20;;;;;;;;;;7399127;19;20022;-78
2022/05/05 02:45:32;;;;;;;4.03;2.45;;;;;;;;;;7396460;19;20006;-78
2022/05/05 02:47:58;;;;;;;4.53;2.30;;;;;;;;;;7398803;19;20015;-77
2022/05/05 02:50:24;;;;;;;3.70;1.83;;;;;;;;;;7395537;19;20017;-79
2022/05/05 02:52:50;;;;;;;3.10;2.55;;;;;;;;;;7401014;19;20018;-78
2022/05/05 02:55:15;;;;;;;2.40;2.20;;;;;;;;;;7397745;19;20013;-79
2022/05/05 02:57:40;;;;;;;3.25;2.53;;;;;;;;;;7400143;19;20009;-79
2022/05/05 03:00:10;;;;;;;3.05;2.72;;;;;;;;;;7397537;19;20391;-77
2022/05/05 03:02:36;;;;;;;3.90;2.47;;;;;;;;;;7399752;19;20438;-79
2022/05/05 03:05:01;;;;;;;4.25;2.30;;;;;;;;;;7394260;19;20432;-78
2022/05/05 03:07:27;;;;;;;3.25;2.70;;;;;;;;;;7397490;19;20099;-78
2022/05/05 03:09:52;;;;;;;3.60;2.58;;;;;;;;;;7396597;19;20447;-79
2022/05/05 03:12:18;;;;;;;4.50;2.47;;;;;;;;;;7396276;19;20019;-77
2022/05/05 03:14:46;;;;;;;4.57;2.70;;;;;;;;;;7398122;19;20002;-79
2022/05/05 03:17:12;;;;;;;3.35;2.80;;;;;;;;;;7396566;19;20028;-78
2022/05/05 03:19:37;;;;;;;2.70;2.50;;;;;;;;;;7397948;19;20427;-78
2022/05/05 03:22:03;;;;;;;3.08;2.42;;;;;;;;;;7396095;19;20011;-78
2022/05/05 03:24:29;;;;;;;5.18;2.67;;;;;;;;;;7401453;19;20599;-80
2022/05/05 03:26:54;;;;;;;4.55;2.88;;;;;;;;;;7402397;19;20014;-80
2022/05/05 03:29:19;;;;;;;5.28;3.00;;;;;;;;;;7405562;19;20021;-78
2022/05/05 03:31:45;;;;;;;3.63;2.40;;;;;;;;;;7405313;19;20012;-77
2022/05/05 03:34:10;;;;;;;2.95;2.33;;;;;;;;;;7406592;19;20006;-79
2022/05/05 03:36:35;;;;;;;3.33;2.80;;;;;;;;;;7402453;19;20022;-79
2022/05/05 03:39:01;;;;;;;2.70;2.20;;;;;;;;;;7402199;19;20007;-79
2022/05/05 03:41:26;;;;;;;3.72;2.90;;;;;;;;;;7401606;19;20011;-78
2022/05/05 03:43:54;;;;;;;3.47;2.50;;;;;;;;;;7404705;19;20014;-78
2022/05/05 03:46:19;;;;;;;2.65;2.30;;;;;;;;;;7403093;19;20014;-78
2022/05/05 03:48:45;;;;;;;3.03;2.70;;;;;;;;;;7399767;19;20030;-77
2022/05/05 03:51:11;;;;;;;4.63;3.17;;;;;;;;;;7397892;19;20018;-80
2022/05/05 03:53:36;;;;;;;2.70;2.15;;;;;;;;;;7400853;19;20006;-79
2022/05/05 03:56:03;;;;;;;3.75;2.50;;;;;;;;;;7395737;19;20063;-77
2022/05/05 03:58:28;;;;;;;2.40;1.73;;;;;;;;;;7400427;19;20070;-79
2022/05/05 04:00:53;;;;;;;2.70;2.13;;;;;;;;;;7398969;19;20028;-77
2022/05/05 04:03:30;;;;;;;3.97;2.30;;;;;;;;;;7393870;19;20620;-79
2022/05/05 04:05:56;;;;;;;2.97;2.60;;;;;;;;;;7397863;19;20472;-78
2022/05/05 04:08:22;;;;;;;2.70;1.83;;;;;;;;;;7398005;19;20013;-80
2022/05/05 04:10:47;;;;;;;3.42;2.53;;;;;;;;;;7399013;19;20017;-79
2022/05/05 04:13:12;;;;;;;3.70;2.95;;;;;;;;;;7396607;19;20035;-79
2022/05/05 04:15:37;;;;;;;3.35;2.58;;;;;;;;;;7398434;19;20460;-79
2022/05/05 04:18:04;;;;;;;5.43;2.58;;;;;;;;;;7400931;19;20006;-77
2022/05/05 04:20:31;;;;;;;3.30;2.50;;;;;;;;;;7402136;19;20317;-80
2022/05/05 04:23:01;;;;;;;3.00;2.72;;;;;;;;;;7396799;19;20009;-79
2022/05/05 04:25:26;;;;;;;2.78;2.33;;;;;;;;;;7398373;19;20014;-78
2022/05/05 04:27:52;;;;;;;3.92;2.53;;;;;;;;;;7396975;19;20043;-79
2022/05/05 04:30:17;;;;;;;3.28;2.30;;;;;;;;;;7400203;19;20337;-78
2022/05/05 04:32:44;;;;;;;3.65;2.70;;;;;;;;;;7398746;19;20014;-79
2022/05/05 04:35:11;;;;;;;4.18;2.30;;;;;;;;;;7394242;19;20014;-79
2022/05/05 04:37:38;;;;;;;3.78;2.70;;;;;;;;;;7399287;19;20078;-78
2022/05/05 04:40:04;;;;;;;9.82;3.38;;;;;;;;;;7395578;19;20014;-82
2022/05/05 04:42:30;;;;;;;5.45;3.58;;;;;;;;;;7397147;19;20010;-81
2022/05/05 04:44:55;;;;;;;4.05;3.20;;;;;;;;;;7403079;19;20017;-79
2022/05/05 04:47:21;;;;;;;4.18;2.92;;;;;;;;;;7394412;19;20457;-80
2022/05/05 04:49:47;;;;;;;6.25;3.17;;;;;;;;;;7397811;19;20011;-79
2022/05/05 04:52:18;;;;;;;5.45;3.25;;;;;;;;;;7399707;19;20021;-79
2022/05/05 04:54:45;;;;;;;5.07;3.03;;;;;;;;;;7393910;19;20003;-79
2022/05/05 04:57:10;;;;;;;4.45;3.22;;;;;;;;;;7389780;19;20469;-79
2022/05/05 04:59:38;;;;;;;4.30;3.40;;;;;;;;;;7398631;19;20007;-80
2022/05/05 05:02:04;;;;;;;4.15;2.90;;;;;;;;;;7395429;19;20010;-78
2022/05/05 05:04:30;;;;;;;5.45;3.10;;;;;;;;;;7396166;19;20100;-79
2022/05/05 05:06:55;;;;;;;5.78;3.90;;;;;;;;;;7395941;19;20010;-80
2022/05/05 05:09:20;;;;;;;4.22;2.63;;;;;;;;;;7396503;19;20017;-78
2022/05/05 05:11:46;;;;;;;5.43;3.50;;;;;;;;;;7388624;19;20130;-78
2022/05/05 05:14:11;;;;;;;4.10;2.42;;;;;;;;;;7395565;19;20456;-77
2022/05/05 05:16:38;;;;;;;6.88;4.40;;;;;;;;;;7387635;19;20030;-78
2022/05/05 05:19:04;;;;;;;7.35;2.95;;;;;;;;;;7390258;19;20010;-77
2022/05/05 05:21:29;;;;;;;5.60;3.53;;;;;;;;;;7391703;19;20126;-78
2022/05/05 05:23:54;;;;;;;3.75;3.00;;;;;;;;;;7394988;19;20022;-78
2022/05/05 05:26:20;;;;;;;5.50;3.38;;;;;;;;;;7395231;19;20035;-77
2022/05/05 05:28:45;;;;;;;4.03;2.83;;;;;;;;;;7393623;19;20003;-78
2022/05/05 05:31:10;;;;;;;3.47;2.60;;;;;;;;;;7396784;19;20097;-80
2022/05/05 05:33:36;;;;;;;4.38;2.90;;;;;;;;;;7399682;19;20014;-78
2022/05/05 05:36:02;;;;;;;4.68;3.50;;;;;;;;;;7394328;19;20484;-77
2022/05/05 05:38:27;;;;;;;8.07;3.33;;;;;;;;;;7396698;19;20504;-78
2022/05/05 05:40:54;;;;;;;13.25;3.70;;;;;;;;;;7394251;19;20333;-76
2022/05/05 05:43:20;;;;;;;5.45;3.40;;;;;;;;;;7394349;19;20007;-77
2022/05/05 05:45:45;;;;;;;4.70;3.47;;;;;;;;;;7392387;19;20080;-79
2022/05/05 05:48:11;;;;;;;4.35;3.22;;;;;;;;;;7384232;19;20099;-79
2022/05/05 05:50:37;;;;;;;6.30;3.83;;;;;;;;;;7392216;19;20041;-78
2022/05/05 05:53:02;;;;;;;5.55;3.85;;;;;;;;;;7392636;19;20399;-80
2022/05/05 05:55:28;;;;;;;4.72;3.75;;;;;;;;;;7392222;19;20019;-79
2022/05/05 05:57:53;;;;;;;11.30;3.45;;;;;;;;;;7395115;19;20345;-80
2022/05/05 06:00:19;;;;;;;4.90;3.60;;;;;;;;;;7392563;19;20041;-79
2022/05/05 06:05:28;;;;;;;5.13;3.20;;;;;;;;;;7395430;19;20088;-80
2022/05/05 06:07:59;;;;;;;5.82;3.50;;;;;;;;;;7391074;19;20018;-77
2022/05/05 06:10:25;;;;;;;4.25;3.00;;;;;;;;;;7392631;19;20039;-76
2022/05/05 06:12:51;;;;;;;3.90;3.50;;;;;;;;;;7395711;19;20013;-77
2022/05/05 06:15:16;;;;;;;3.70;3.08;;;;;;;;;;7393711;19;20003;-80
2022/05/05 06:17:41;;;;;;;7.10;3.78;;;;;;;;;;7393734;19;20010;-78
2022/05/05 06:20:07;;;;;;;3.90;3.35;;;;;;;;;;7399139;19;20007;-77
2022/05/05 06:22:34;;;;;;;4.53;3.50;;;;;;;;;;7394610;19;20066;-77
2022/05/05 06:25:00;;;;;;;8.65;3.78;;;;;;;;;;7386233;19;20006;-80
2022/05/05 06:27:25;;;;;;;6.93;3.50;;;;;;;;;;7384447;19;20006;-78
2022/05/05 06:29:52;;;;;;;4.35;3.75;;;;;;;;;;7390790;19;20155;-78
2022/05/05 06:32:17;;;;;;;4.75;3.50;;;;;;;;;;7391114;19;20041;-78
2022/05/05 06:34:43;;;;;;;5.30;3.80;;;;;;;;;;7387968;19;20516;-80
2022/05/05 06:37:08;;;;;;;5.90;4.03;;;;;;;;;;7388669;19;20003;-80
2022/05/05 06:39:36;;;;;;;5.10;3.92;;;;;;;;;;7387014;19;20459;-79
2022/05/05 06:42:02;;;;;;;6.07;4.60;;;;;;;;;;7387434;19;20089;-77
2022/05/05 06:44:27;;;;;;;5.47;4.10;;;;;;;;;;7389432;19;20452;-79
2022/05/05 06:46:53;;;;;;;5.07;3.63;;;;;;;;;;7384778;19;20023;-80
2022/05/05 06:49:18;;;;;;;6.93;3.92;;;;;;;;;;7389079;19;20011;-81
2022/05/05 06:51:44;;;;;;;5.50;4.20;;;;;;;;;;7389806;19;20022;-78
2022/05/05 06:54:09;;;;;;;5.20;3.55;;;;;;;;;;7386787;19;19999;-79
2022/05/05 06:56:34;;;;;;;4.18;3.47;;;;;;;;;;7387418;19;20022;-79
2022/05/05 06:59:00;;;;;;;4.88;3.85;;;;;;;;;;7388326;19;20007;-80
2022/05/05 07:06:53;;;;;;;5.47;3.75;;;;;;;;;;7394277;19;20027;-79
2022/05/05 07:12:02;;;;;;;6.22;4.30;;;;;;;;;;7388026;19;20019;-81
2022/05/05 07:14:27;;;;;;;5.22;4.00;;;;;;;;;;7386883;19;20352;-81
2022/05/05 07:16:53;;;;;;;4.18;3.45;;;;;;;;;;7389576;19;20012;-80
2022/05/05 07:19:18;;;;;;;3.95;3.03;;;;;;;;;;7391455;19;20011;-82
2022/05/05 07:21:44;;;;;;;6.18;4.30;;;;;;;;;;7391649;19;20035;-83
2022/05/05 07:24:09;;;;;;;4.57;3.70;;;;;;;;;;7392915;19;20028;-81
2022/05/05 07:26:35;;;;;;;4.47;3.88;;;;;;;;;;7394105;19;20089;-79
2022/05/05 07:29:00;;;;;;;5.82;4.35;;;;;;;;;;7389835;19;20010;-81
2022/05/05 07:31:34;;;;;;;4.20;3.65;;;;;;;;;;7385686;19;20391;-82
2022/05/05 07:33:59;;;;;;;5.88;4.28;;;;;;;;;;7383702;19;20007;-81
2022/05/05 07:36:30;;;;;;;5.40;3.88;;;;;;;;;;7387002;19;20036;-79
2022/05/05 07:39:01;;;;;;;6.60;4.20;;;;;;;;;;7379910;19;20122;-81
2022/05/05 07:41:26;;;;;;;4.38;3.30;;;;;;;;;;7379007;19;20027;-82
2022/05/05 07:43:52;;;;;;;6.03;4.20;;;;;;;;;;7389354;19;20014;-82
2022/05/05 07:46:18;;;;;;;4.97;3.90;;;;;;;;;;7387997;19;20154;-81
2022/05/05 07:48:44;;;;;;;3.95;3.30;;;;;;;;;;7406386;19;20005;-81
2022/05/05 07:51:09;;;;;;;4.47;3.47;;;;;;;;;;7420705;19;20011;-81
2022/05/05 07:53:35;;;;;;;6.65;3.85;;;;;;;;;;7419945;19;20031;-81
2022/05/05 07:56:00;;;;;;;4.35;3.65;;;;;;;;;;7416678;19;20127;-81
2022/05/05 07:58:25;;;;;;;3.80;3.08;;;;;;;;;;7399102;19;20010;-78
2022/05/05 08:00:50;;;;;;;4.63;3.40;;;;;;;;;;7386245;19;20023;-78
2022/05/05 08:03:16;;;;;;;4.45;3.17;;;;;;;;;;7387360;19;20010;-78
2022/05/05 08:05:41;;;;;;;5.50;3.55;;;;;;;;;;7384557;19;20127;-78
2022/05/05 08:08:06;;;;;;;4.32;3.45;;;;;;;;;;7386369;19;20007;-80
2022/05/05 08:10:32;;;;;;;3.42;2.95;;;;;;;;;;7389724;19;20317;-81
2022/05/05 08:12:57;;;;;;;3.53;2.97;;;;;;;;;;7394139;19;20114;-79
2022/05/05 08:15:22;;;;;;;4.30;2.85;;;;;;;;;;7395103;19;20014;-78
2022/05/05 08:17:48;;;;;;;4.05;2.97;;;;;;;;;;7393223;19;20026;-79
2022/05/05 08:20:15;;;;;;;4.53;3.10;;;;;;;;;;7393358;19;20082;-78
2022/05/05 08:22:41;;;;;;;4.28;2.58;;;;;;;;;;7389370;19;20015;-79
2022/05/05 08:30:34;;;;;;;2.72;2.20;;;;;;;;;;7392623;19;20024;-80
2022/05/05 08:32:59;;;;;;;3.38;2.58;;;;;;;;;;7395192;19;20091;-77
2022/05/05 08:35:27;;;;;;;3.53;2.88;;;;;;;;;;7390788;19;20039;-78
2022/05/05 08:37:53;;;;;;;3.33;2.50;;;;;;;;;;7394217;19;20006;-81
2022/05/05 08:40:26;;;;;;;3.28;2.63;;;;;;;;;;7391056;19;20021;-80
2022/05/05 08:42:51;;;;;;;5.85;2.40;;;;;;;;;;7394264;19;20003;-77
2022/05/05 08:45:18;;;;;;;3.53;2.42;;;;;;;;;;7393095;19;20369;-80
2022/05/05 08:47:47;;;;;;;5.63;2.40;;;;;;;;;;7390795;19;20029;-78
2022/05/05 08:50:15;;;;;;;3.15;2.83;;;;;;;;;;7392168;19;20463;-78
2022/05/05 08:52:47;;;;;;;3.63;2.60;;;;;;;;;;7395677;19;20029;-81
2022/05/05 08:55:14;;;;;;;4.32;2.67;;;;;;;;;;7390372;19;20390;-79
2022/05/05 08:57:40;;;;;;;3.92;2.50;;;;;;;;;;7392247;19;20015;-78
2022/05/05 09:00:06;;;;;;;4.18;2.90;;;;;;;;;;7393476;19;20016;-81
2022/05/05 09:02:31;;;;;;;2.67;2.47;;;;;;;;;;7389643;19;20002;-77
2022/05/05 09:05:03;;;;;;;3.97;2.60;;;;;;;;;;7390162;19;20007;-79
2022/05/05 09:08:08;;;;;;;2.85;2.60;;;;;;;;;;7393252;19;20114;-79
2022/05/05 09:14:09;;;;;;;3.45;2.58;;;;;;;;;;7390307;19;20026;-78
2022/05/05 09:16:46;;;;;;;6.00;2.65;;;;;;;;;;7388197;19;20006;-79
2022/05/05 09:19:12;;;;;;;2.30;2.10;;;;;;;;;;7389634;19;20103;-79
2022/05/05 09:21:41;;;;;;;2.45;2.22;;;;;;;;;;7384913;19;20318;-78
2022/05/05 09:26:55;;;;;;;2.20;2.00;;;;;;;;;;7386990;19;20516;-80
2022/05/05 09:29:21;;;;;;;5.68;2.42;;;;;;;;;;7388829;19;20069;-78
2022/05/05 09:31:48;;;;;;;4.82;1.83;;;;;;;;;;7388131;19;20036;-80
2022/05/05 09:34:19;;;;;;;3.92;1.60;;;;;;;;;;7383519;19;20092;-78
2022/05/05 09:36:47;;;;;;;3.22;2.13;;;;;;;;;;7384796;19;20130;-81
2022/05/05 09:39:13;;;;;;;4.25;2.10;;;;;;;;;;7391067;19;20007;-79
2022/05/05 09:41:46;;;;;;;2.35;1.60;;;;;;;;;;7385960;19;20021;-79
2022/05/05 09:44:12;;;;;;;2.10;1.90;;;;;;;;;;7388484;19;20035;-77
2022/05/05 09:46:37;;;;;;;2.63;2.00;;;;;;;;;;7387332;19;20002;-78
2022/05/05 09:49:14;;;;;;;2.35;1.80;;;;;;;;;;7390809;19;20507;-79
2022/05/05 09:51:45;;;;;;;4.03;1.95;;;;;;;;;;7389796;19;20118;-78
2022/05/05 09:59:46;;;;;;;;;;;;;;;;;;7392088;19;20017;-78
2022/05/05 10:02:27;;;;;;;2.05;1.60;;;;;;;;;;7386555;19;19919;-78
2022/05/05 10:04:54;;;;;;;2.35;1.90;;;;;;;;;;7391273;19;20014;-78
2022/05/05 10:07:22;;;;;;;2.15;1.70;;;;;;;;;;7387717;19;20025;-79
2022/05/05 10:09:59;;;;;;;1.52;1.42;;;;;;;;;;7382630;19;20002;-77
2022/05/05 10:12:27;;;;;;;3.00;1.75;;;;;;;;;;7387861;19;20027;-79
2022/05/05 10:14:53;;;;;;;2.03;1.40;;;;;;;;;;7390694;19;20013;-78
2022/05/05 10:17:18;;;;;;;2.53;1.52;;;;;;;;;;7383763;19;20006;-78
2022/05/05 10:19:43;;;;;;;4.47;1.55;;;;;;;;;;7388767;19;20018;-77
2022/05/05 10:22:16;;;;;;;2.25;1.40;;;;;;;;;;7380728;19;20009;-76
2022/05/05 10:24:50;;;;;;;1.80;1.63;;;;;;;;;;7385136;19;20459;-78
2022/05/05 10:27:16;;;;;;;1.70;1.50;;;;;;;;;;7386753;19;20011;-76
2022/05/05 10:29:43;;;;;;;2.95;1.60;;;;;;;;;;7390131;19;19995;-76
2022/05/05 10:32:19;;;;;;;1.95;1.65;;;;;;;;;;7387790;19;20027;-77
2022/05/05 10:34:51;;;;;;;2.25;1.58;;;;;;;;;;7384082;19;20011;-76
2022/05/05 10:37:20;;;;;;;2.03;1.42;;;;;;;;;;7383260;19;20014;-76
2022/05/05 10:40:02;;;;;;;2.50;2.00;;;;;;;;;;7385145;19;20010;-77
2022/05/05 10:42:33;;;;;;;1.70;1.60;;;;;;;;;;7385642;19;20010;-77
2022/05/05 10:45:27;;;;;;;2.53;1.85;;;;;;;;;;7381835;19;20002;-77
2022/05/05 10:47:55;;;;;;;1.70;1.42;;;;;;;;;;7384919;19;20006;-78
2022/05/05 10:51:00;;;;;;;2.28;1.50;;;;;;;;;;7383629;19;20016;-77
2022/05/05 10:53:31;;;;;;;3.35;2.00;;;;;;;;;;7388579;19;20011;-77
2022/05/05 10:55:58;;;;;;;1.95;1.52;;;;;;;;;;7386395;19;20002;-77
2022/05/05 10:58:58;;;;;;;1.67;1.55;;;;;;;;;;7384426;19;20411;-77
2022/05/05 11:01:27;;;;;;;2.00;1.58;;;;;;;;;;7380256;19;20015;-77
2022/05/05 11:04:24;;;;;;;2.45;1.42;;;;;;;;;;7385635;19;20035;-77
2022/05/05 11:07:16;;;;;;;2.35;1.40;;;;;;;;;;7383255;19;20063;-77
2022/05/05 11:09:41;;;;;;;5.32;1.45;;;;;;;;;;7376952;19;20019;-77
2022/05/05 11:12:14;;;;;;;1.95;1.40;;;;;;;;;;7383446;19;20010;-77
2022/05/05 11:23:24;;;;;;;2.00;1.38;;;;;;;;;;7382150;19;20031;-77
2022/05/05 11:25:51;;;;;;;1.20;1.10;;;;;;;;;;7383297;19;20002;-76
2022/05/05 11:28:17;;;;;;;1.60;1.50;;;;;;;;;;7387615;19;20654;-77
2022/05/05 11:30:43;;;;;;;1.50;1.40;;;;;;;;;;7386707;19;20014;-77
2022/05/05 11:33:09;;;;;;;7.78;1.50;;;;;;;;;;7387336;19;20010;-76
2022/05/05 11:35:34;;;;;;;3.95;1.60;;;;;;;;;;7386944;19;20006;-76
2022/05/05 11:37:59;;;;;;;2.17;1.50;;;;;;;;;;7384013;19;20310;-77
2022/05/05 11:40:24;;;;;;;2.33;1.60;;;;;;;;;;7385461;19;20007;-77
2022/05/05 11:45:37;;;;;;;3.20;1.13;;;;;;;;;;7389136;19;20017;-76
2022/05/05 11:48:17;;;;;;;1.58;1.48;;;;;;;;;;7395857;19;20354;-77
2022/05/05 11:50:44;;;;;;;2.17;1.60;;;;;;;;;;7393053;19;20006;-76
2022/05/05 11:53:17;;;;;;;2.88;1.70;;;;;;;;;;7391904;19;20114;-76
2022/05/05 11:55:44;;;;;;;1.65;1.45;;;;;;;;;;7392316;19;20011;-76
2022/05/05 12:01:36;;;;;;;2.03;1.63;;;;;;;;;;7392330;19;20074;-76
2022/05/05 12:03:57;;;;;;;1.95;1.50;;;;;;;;;;7394543;19;20022;-77
2022/05/05 12:06:23;;;;;;;2.65;1.50;;;;;;;;;;7390717;19;20024;-77
2022/05/05 12:08:48;;;;;;;2.55;1.67;;;;;;;;;;7388627;19;20090;-76
2022/05/05 12:11:14;;;;;;;1.23;1.13;;;;;;;;;;7388227;19;20017;-77
2022/05/05 12:13:39;;;;;;;3.70;1.40;;;;;;;;;;7384273;19;20017;-77
2022/05/05 12:16:05;;;;;;;2.25;1.55;;;;;;;;;;7388163;19;20125;-77
2022/05/05 12:18:30;;;;;;;1.40;1.30;;;;;;;;;;7388092;19;20011;-77
2022/05/05 12:20:57;;;;;;;1.50;1.20;;;;;;;;;;7391400;19;20006;-77
2022/05/05 12:23:26;;;;;;;1.10;1.02;;;;;;;;;;7389321;19;20019;-76
2022/05/05 12:25:51;;;;;;;1.75;1.17;;;;;;;;;;7387197;19;20010;-76
2022/05/05 12:28:17;;;;;;;1.75;1.48;;;;;;;;;;7390407;19;20014;-77
2022/05/05 12:30:43;;;;;;;1.15;1.05;;;;;;;;;;7380271;19;20115;-78
2022/05/05 12:33:11;;;;;;;1.23;0.98;;;;;;;;;;7387110;19;20018;-78
2022/05/05 12:35:38;;;;;;;1.55;1.40;;;;;;;;;;7388914;19;20034;-76
2022/05/05 12:38:06;;;;;;;1.20;1.10;;;;;;;;;;7390632;19;20010;-76
2022/05/05 12:40:33;;;;;;;3.65;1.27;;;;;;;;;;7387840;19;20006;-77
2022/05/05 12:43:04;;;;;;;2.47;1.30;;;;;;;;;;7392304;19;20014;-77
2022/05/05 12:45:35;;;;;;;1.73;1.40;;;;;;;;;;7388198;19;20009;-78
2022/05/05 12:48:02;;;;;;;1.50;1.40;;;;;;;;;;7392040;19;20107;-77
2022/05/05 12:50:36;;;;;;;2.50;1.27;;;;;;;;;;7389972;19;20100;-77
2022/05/05 13:01:49;;;;;;;1.42;1.13;;;;;;;;;;7389986;19;20039;-78
2022/05/05 13:04:15;;;;;;;1.42;1.27;;;;;;;;;;7391309;19;20054;-78
2022/05/05 13:06:48;;;;;;;1.55;1.10;;;;;;;;;;7393997;19;20019;-77
2022/05/05 13:09:13;;;;;;;1.23;1.10;;;;;;;;;;7390632;19;20071;-78
2022/05/05 13:11:41;;;;;;;1.50;1.23;;;;;;;;;;7390225;19;20010;-78
2022/05/05 13:14:07;;;;;;;1.55;1.00;;;;;;;;;;7392609;19;20003;-77
2022/05/05 13:16:34;;;;;;;1.25;1.17;;;;;;;;;;7381649;19;20031;-78
2022/05/05 13:19:02;;;;;;;1.30;1.20;;;;;;;;;;7386267;19;20397;-78
2022/05/05 13:21:29;;;;;;;2.28;1.25;;;;;;;;;;7383287;19;20010;-77
2022/05/05 13:23:55;;;;;;;1.83;1.17;;;;;;;;;;7388523;19;20102;-77
2022/05/05 13:26:21;;;;;;;1.17;1.08;;;;;;;;;;7374977;19;20474;-78
2022/05/05 13:28:46;;;;;;;1.30;1.10;;;;;;;;;;7382831;19;20647;-77
2022/05/05 13:31:11;;;;;;;1.52;1.40;;;;;;;;;;7381471;19;20027;-77
2022/05/05 13:33:37;;;;;;;1.40;1.13;;;;;;;;;;7381309;19;20366;-77
2022/05/05 13:36:03;;;;;;;2.42;1.23;;;;;;;;;;7387553;19;20074;-76
2022/05/05 13:38:28;;;;;;;1.67;1.20;;;;;;;;;;7384185;19;20002;-77
2022/05/05 13:40:56;;;;;;;2.90;1.55;;;;;;;;;;7389969;19;20011;-77
2022/05/05 13:43:22;;;;;;;2.58;1.20;;;;;;;;;;7391583;19;20015;-76
2022/05/05 13:45:47;;;;;;;1.17;1.08;;;;;;;;;;7389884;19;20333;-76
2022/05/05 13:48:13;;;;;;;3.20;1.23;;;;;;;;;;7389685;19;20015;-76
2022/05/05 13:50:38;;;;;;;2.75;1.13;;;;;;;;;;7388604;19;19998;-77
2022/05/05 13:53:03;;;;;;;1.27;1.10;;;;;;;;;;7389827;19;20006;-77
2022/05/05 13:55:29;;;;;;;1.52;1.38;;;;;;;;;;7388174;19;20016;-76
2022/05/05 13:57:58;;;;;;;1.33;1.23;;;;;;;;;;7388548;19;20014;-76
2022/05/05 14:00:24;;;;;;;1.20;1.10;;;;;;;;;;7385913;19;20313;-76
2022/05/05 14:02:50;;;;;;;1.42;1.23;;;;;;;;;;7353006;19;20007;-76
2022/05/05 14:05:15;;;;;;;2.75;1.40;;;;;;;;;;7386292;19;20342;-77
2022/05/05 14:13:08;;;;;;;1.20;1.10;;;;;;;;;;7390040;19;20026;-77
2022/05/05 14:15:34;;;;;;;1.30;1.20;;;;;;;;;;7392188;19;20014;-76
2022/05/05 14:17:59;;;;;;;2.17;1.15;;;;;;;;;;7387991;19;20006;-77
2022/05/05 14:20:26;;;;;;;1.30;1.20;;;;;;;;;;7388766;19;20010;-76
2022/05/05 14:22:52;;;;;;;1.20;1.00;;;;;;;;;;7392532;19;20038;-77
2022/05/05 14:25:17;;;;;;;1.33;1.23;;;;;;;;;;7400485;19;20009;-77
2022/05/05 14:27:42;;;;;;;2.17;1.50;;;;;;;;;;7400030;19;20006;-77
2022/05/05 14:30:09;;;;;;;1.67;1.20;;;;;;;;;;7401988;19;20030;-77
2022/05/05 14:32:34;;;;;;;2.05;1.27;;;;;;;;;;7393825;19;20126;-77
2022/05/05 14:35:01;;;;;;;1.88;1.10;;;;;;;;;;7397303;19;20394;-77
2022/05/05 14:37:26;;;;;;;7.20;1.50;;;;;;;;;;7388872;19;19998;-77
2022/05/05 14:39:51;;;;;;;1.52;1.25;;;;;;;;;;7391999;19;20018;-77
2022/05/05 14:42:17;;;;;;;2.15;1.30;;;;;;;;;;7386504;19;20605;-77
2022/05/05 14:44:42;;;;;;;1.25;1.08;;;;;;;;;;7390908;19;20125;-77
2022/05/05 14:47:09;;;;;;;1.23;1.13;;;;;;;;;;7391248;19;20062;-77
2022/05/05 14:49:34;;;;;;;1.40;1.30;;;;;;;;;;7390796;19;20015;-77
2022/05/05 14:52:00;;;;;;;1.42;1.33;;;;;;;;;;7392955;19;20003;-77
2022/05/05 14:54:25;;;;;;;3.38;1.60;;;;;;;;;;7395581;19;20010;-77
2022/05/05 14:56:51;;;;;;;1.63;1.17;;;;;;;;;;7388369;19;20031;-77
2022/05/05 14:59:16;;;;;;;1.70;1.30;;;;;;;;;;7396034;19;20010;-77
2022/05/05 15:01:41;;;;;;;1.30;1.20;;;;;;;;;;7393519;19;20009;-77
2022/05/05 15:04:06;;;;;;;1.70;1.48;;;;;;;;;;7388828;19;20341;-77
2022/05/05 15:06:32;;;;;;;5.47;1.73;;;;;;;;;;7388981;19;20044;-77
2022/05/05 15:08:57;;;;;;;2.78;1.75;;;;;;;;;;7393467;19;20013;-77
2022/05/05 15:11:22;;;;;;;1.92;1.60;;;;;;;;;;7394803;19;20014;-78
2022/05/05 15:13:49;;;;;;;2.15;1.58;;;;;;;;;;7388584;19;20023;-77
2022/05/05 15:16:15;;;;;;;1.73;1.23;;;;;;;;;;7384959;19;20031;-77
2022/05/05 15:18:41;;;;;;;2.03;1.73;;;;;;;;;;7387076;19;20466;-77
2022/05/05 15:21:06;;;;;;;1.75;1.50;;;;;;;;;;7388984;19;20016;-77
2022/05/05 15:23:31;;;;;;;1.88;1.60;;;;;;;;;;7395960;19;20018;-78
2022/05/05 15:25:57;;;;;;;1.52;1.42;;;;;;;;;;7401791;19;20006;-77
2022/05/05 15:28:22;;;;;;;2.08;1.20;;;;;;;;;;7396726;19;20036;-77
2022/05/05 15:30:48;;;;;;;3.80;1.40;;;;;;;;;;7392705;19;20006;-77
2022/05/05 15:33:13;;;;;;;2.30;1.55;;;;;;;;;;7395837;19;20014;-77
2022/05/05 15:35:38;;;;;;;2.88;1.33;;;;;;;;;;7393605;19;20002;-77
2022/05/05 15:38:04;;;;;;;1.50;1.40;;;;;;;;;;7393899;19;20015;-77
2022/05/05 15:40:30;;;;;;;1.98;1.77;;;;;;;;;;7391469;19;20150;-77
2022/05/05 15:42:56;;;;;;;2.30;1.67;;;;;;;;;;7393467;19;20515;-77
2022/05/05 15:45:21;;;;;;;2.53;1.67;;;;;;;;;;7388767;19;20338;-77
2022/05/05 15:47:50;;;;;;;1.88;1.48;;;;;;;;;;7390463;19;20018;-76
2022/05/05 15:50:15;;;;;;;2.50;1.70;;;;;;;;;;7398228;19;20578;-77
2022/05/05 15:52:41;;;;;;;2.35;1.52;;;;;;;;;;7391806;19;20014;-77